Time;durP1;ratioP1;P1;durP2;ratioP2;P2;SDS_P1;SDS_P2;PMS_P1;PMS_P2;Temp;Humidity;BMP_temperature;BMP_pressure;BME280_temperature;BME280_humidity;BME280_pressure;Samples;Min_cycle;Max_cycle;Signal;HPM_P1;HPM_P2
2022/05/02 00:00:15;;;;;;;0.95;0.45;;;;;;;13.12;69.54;101497.00;5091102;28;20032;-67
2022/05/02 00:02:40;;;;;;;0.82;0.43;;;;;;;13.09;68.40;101484.16;5089806;28;20093;-67
2022/05/02 00:05:07;;;;;;;0.88;0.60;;;;;;;13.07;68.52;101481.00;5084990;28;20036;-67
2022/05/02 00:07:33;;;;;;;3.13;0.30;;;;;;;13.04;67.73;101477.13;5089295;28;20426;-67
2022/05/02 00:09:58;;;;;;;0.20;0.20;;;;;;;13.02;68.51;101473.94;5081767;28;20028;-67
2022/05/02 00:12:23;;;;;;;0.40;0.30;;;;;;;12.97;68.86;101482.31;5074485;28;20042;-67
2022/05/02 00:14:49;;;;;;;0.85;0.32;;;;;;;12.99;68.74;101473.88;5082343;28;20036;-67
2022/05/02 00:17:16;;;;;;;0.40;0.40;;;;;;;12.90;69.57;101479.44;5089081;28;20535;-67
2022/05/02 00:19:41;;;;;;;0.40;0.40;;;;;;;12.88;68.34;101478.22;5089101;28;20169;-67
2022/05/02 00:22:06;;;;;;;0.50;0.38;;;;;;;12.87;67.98;101471.25;5072228;28;20165;-67
2022/05/02 00:24:32;;;;;;;0.30;0.30;;;;;;;12.82;66.86;101468.78;5082227;28;20035;-67
2022/05/02 00:26:57;;;;;;;0.98;0.60;;;;;;;12.82;65.53;101474.19;5089906;28;20029;-67
2022/05/02 00:29:24;;;;;;;0.25;0.20;;;;;;;12.79;66.91;101467.59;5082084;28;20123;-67
2022/05/02 00:31:50;;;;;;;0.32;0.30;;;;;;;12.79;66.94;101461.41;5071324;28;20128;-67
2022/05/02 00:34:15;;;;;;;0.38;0.38;;;;;;;12.70;67.48;101456.16;5088505;28;20521;-67
2022/05/02 00:36:41;;;;;;;0.22;0.22;;;;;;;12.63;67.56;101454.06;5083089;28;20040;-67
2022/05/02 00:39:07;;;;;;;3.60;0.60;;;;;;;12.56;68.06;101451.19;5089963;28;20063;-67
2022/05/02 00:41:32;;;;;;;0.32;0.30;;;;;;;12.51;68.18;101443.34;5089500;28;20036;-67
2022/05/02 00:43:58;;;;;;;0.40;0.32;;;;;;;12.50;68.77;101447.16;5089887;28;20024;-67
2022/05/02 00:46:26;;;;;;;0.80;0.50;;;;;;;12.48;69.16;101444.06;5087575;28;20384;-67
2022/05/02 00:48:53;;;;;;;0.50;0.50;;;;;;;12.37;69.25;101445.69;5089142;28;20756;-67
2022/05/02 00:51:19;;;;;;;0.30;0.30;;;;;;;12.36;69.44;101440.63;5090029;28;20046;-68
2022/05/02 00:53:48;;;;;;;0.90;0.40;;;;;;;12.26;69.38;101436.53;5089299;28;20078;-67
2022/05/02 00:56:16;;;;;;;0.75;0.40;;;;;;;12.18;69.99;101433.97;5080427;28;20043;-67
2022/05/02 00:58:42;;;;;;;0.20;0.20;;;;;;;12.09;70.56;101436.84;5078641;28;20036;-67
2022/05/02 01:01:08;;;;;;;0.22;0.22;;;;;;;12.04;70.25;101431.66;5082898;28;20032;-67
2022/05/02 01:03:35;;;;;;;0.60;0.40;;;;;;;11.97;70.66;101433.41;5077652;28;20074;-67
2022/05/02 01:08:46;;;;;;;0.95;0.50;;;;;;;11.85;70.57;101433.44;5076673;28;20101;-67
2022/05/02 01:11:11;;;;;;;0.32;0.32;;;;;;;11.76;70.98;101428.22;5084856;28;20040;-67
2022/05/02 01:13:47;;;;;;;0.28;0.22;;;;;;;11.70;71.28;101438.47;5071231;28;20027;-67
2022/05/02 01:16:33;;;;;;;0.57;0.57;;;;;;;11.67;72.72;101439.13;5083155;28;20086;-67
2022/05/02 01:18:59;;;;;;;0.30;0.30;;;;;;;11.65;73.01;101438.69;5085665;28;20105;-67
2022/05/02 01:21:31;;;;;;;0.57;0.55;;;;;;;11.55;73.41;101444.56;5089466;28;20040;-67
2022/05/02 01:24:04;;;;;;;0.20;0.20;;;;;;;11.53;72.59;101436.03;5089770;28;20036;-67
2022/05/02 01:26:30;;;;;;;0.35;0.32;;;;;;;11.49;73.07;101448.63;5088055;28;20090;-67
2022/05/02 01:28:58;;;;;;;0.40;0.40;;;;;;;11.47;73.42;101441.97;5089830;28;20035;-67
2022/05/02 01:31:24;;;;;;;0.10;0.10;;;;;;;11.48;72.46;101441.63;5083782;28;20421;-67
2022/05/02 01:33:51;;;;;;;0.50;0.50;;;;;;;11.45;71.78;101449.63;5084961;28;20040;-67
2022/05/02 01:36:18;;;;;;;0.20;0.20;;;;;;;11.47;71.92;101450.88;5087845;28;20041;-67
2022/05/02 01:38:45;;;;;;;0.45;0.35;;;;;;;11.47;72.38;101447.38;5078041;28;20033;-67
2022/05/02 01:41:11;;;;;;;0.40;0.40;;;;;;;11.39;74.16;101450.97;5083375;28;20039;-67
2022/05/02 01:43:37;;;;;;;0.60;0.50;;;;;;;11.34;74.85;101456.63;5058824;28;20112;-67
2022/05/02 01:46:04;;;;;;;0.50;0.50;;;;;;;11.38;73.40;101449.44;5086950;28;20165;-67
2022/05/02 01:48:30;;;;;;;0.77;0.60;;;;;;;11.37;71.90;101440.53;5086619;28;20458;-67
2022/05/02 01:50:57;;;;;;;0.40;0.40;;;;;;;11.29;72.12;101430.66;5092816;28;20063;-67
2022/05/02 01:53:23;;;;;;;0.30;0.30;;;;;;;11.25;72.60;101428.97;5087594;28;20032;-68
2022/05/02 01:55:48;;;;;;;1.95;0.50;;;;;;;11.23;73.81;101442.00;5089083;28;20036;-68
2022/05/02 01:58:14;;;;;;;0.30;0.30;;;;;;;11.16;74.13;101441.81;5091560;28;20032;-68
2022/05/02 02:00:40;;;;;;;0.90;0.57;;;;;;;11.18;73.14;101428.78;5072210;28;20406;-67
2022/05/02 02:03:06;;;;;;;0.50;0.50;;;;;;;11.21;72.90;101438.88;5087476;28;20035;-67
2022/05/02 02:05:49;;;;;;;0.20;0.20;;;;;;;11.13;74.16;101429.03;5092480;28;20085;-67
2022/05/02 02:08:29;;;;;;;1.02;0.68;;;;;;;11.15;74.12;101435.63;5091547;28;20020;-67
2022/05/02 02:10:58;;;;;;;0.52;0.52;;;;;;;11.13;74.73;101432.47;5087070;28;20499;-67
2022/05/02 02:13:24;;;;;;;1.27;0.40;;;;;;;11.12;75.17;101428.22;5092847;28;20043;-67
2022/05/02 02:15:49;;;;;;;2.17;0.70;;;;;;;11.10;75.29;101429.69;5092616;28;20036;-67
2022/05/02 02:18:15;;;;;;;0.43;0.43;;;;;;;11.09;75.97;101436.22;5085821;28;20381;-67
2022/05/02 02:20:47;;;;;;;3.03;0.43;;;;;;;11.11;76.01;101436.66;5092450;28;20032;-67
2022/05/02 02:23:14;;;;;;;0.63;0.60;;;;;;;11.12;74.99;101436.31;5092734;28;20169;-67
2022/05/02 02:25:40;;;;;;;0.40;0.40;;;;;;;11.10;74.83;101432.38;5092969;28;20032;-67
2022/05/02 02:28:06;;;;;;;0.50;0.40;;;;;;;11.07;75.16;101435.75;5080663;28;20042;-67
2022/05/02 02:30:31;;;;;;;0.68;0.68;;;;;;;11.08;75.52;101434.63;5072820;28;20101;-68
2022/05/02 02:32:57;;;;;;;0.40;0.40;;;;;;;11.08;75.13;101440.81;5077181;28;20040;-67
2022/05/02 02:35:23;;;;;;;0.88;0.50;;;;;;;11.03;75.56;101438.34;5080935;28;20484;-67
2022/05/02 02:37:49;;;;;;;0.30;0.30;;;;;;;11.03;76.19;101437.56;5079988;28;20131;-67
2022/05/02 02:40:15;;;;;;;0.50;0.40;;;;;;;11.04;76.47;101436.41;5090753;28;20024;-67
2022/05/02 02:42:41;;;;;;;1.38;0.45;;;;;;;11.01;76.54;101434.41;5092071;28;20035;-67
2022/05/02 02:45:07;;;;;;;1.75;0.60;;;;;;;10.98;77.01;101432.38;5092339;28;20016;-67
2022/05/02 02:47:32;;;;;;;1.63;0.65;;;;;;;11.00;76.31;101438.22;5089841;28;20050;-67
2022/05/02 02:49:58;;;;;;;0.45;0.35;;;;;;;10.97;76.34;101426.22;5091250;28;20081;-67
2022/05/02 02:52:23;;;;;;;1.48;0.60;;;;;;;10.95;75.88;101422.28;5093256;28;20058;-67
2022/05/02 02:54:49;;;;;;;1.23;0.50;;;;;;;10.92;76.26;101421.03;5091117;28;20036;-68
2022/05/02 02:57:14;;;;;;;1.90;0.85;;;;;;;10.87;75.97;101419.38;5046345;28;20394;-67
2022/05/02 02:59:40;;;;;;;0.60;0.60;;;;;;;10.92;75.90;101425.66;5087879;28;20040;-68
2022/05/02 03:02:06;;;;;;;0.70;0.70;;;;;;;10.89;76.11;101422.53;5092277;28;20060;-68
2022/05/02 03:07:16;;;;;;;0.43;0.38;;;;;;;10.72;75.97;101417.34;5083702;28;20081;-68
2022/05/02 03:09:41;;;;;;;0.63;0.45;;;;;;;10.74;75.63;101419.72;5088840;28;20055;-68
2022/05/02 03:12:07;;;;;;;0.68;0.63;;;;;;;10.72;75.27;101406.56;5091861;28;20027;-68
2022/05/02 03:14:33;;;;;;;0.50;0.50;;;;;;;10.62;75.94;101409.72;5091912;28;20457;-68
2022/05/02 03:16:58;;;;;;;0.75;0.50;;;;;;;10.54;76.99;101407.13;5089433;28;20048;-68
2022/05/02 03:19:24;;;;;;;1.45;0.77;;;;;;;10.47;77.15;101404.97;5092254;28;20032;-68
2022/05/02 03:21:49;;;;;;;0.82;0.65;;;;;;;10.41;78.50;101406.34;5091559;28;20115;-68
2022/05/02 03:24:15;;;;;;;1.17;0.75;;;;;;;10.39;79.33;101403.19;5090526;28;20023;-68
2022/05/02 03:26:40;;;;;;;1.27;0.88;;;;;;;10.35;79.08;101407.66;5083667;28;20042;-68
2022/05/02 03:29:05;;;;;;;1.27;0.63;;;;;;;10.33;79.34;101398.34;5089205;28;20039;-68
2022/05/02 03:31:31;;;;;;;0.60;0.60;;;;;;;10.34;78.84;101394.53;5088107;28;20040;-68
2022/05/02 03:33:56;;;;;;;0.30;0.30;;;;;;;10.33;78.68;101401.03;5075560;28;20119;-68
2022/05/02 03:36:22;;;;;;;4.35;0.47;;;;;;;10.28;79.23;101401.25;5079200;28;20040;-67
2022/05/02 03:38:47;;;;;;;0.30;0.30;;;;;;;10.21;80.04;101406.38;5075503;28;20025;-67
2022/05/02 03:41:13;;;;;;;0.82;0.28;;;;;;;10.24;80.40;101401.13;5078757;28;20031;-69
2022/05/02 03:43:38;;;;;;;0.55;0.50;;;;;;;10.26;80.17;101408.88;5076386;28;20059;-70
2022/05/02 03:46:03;;;;;;;2.67;0.50;;;;;;;10.26;80.13;101414.28;5078060;28;20048;-70
2022/05/02 03:48:29;;;;;;;0.30;0.30;;;;;;;10.23;79.66;101413.03;5081611;28;20028;-68
2022/05/02 03:50:55;;;;;;;0.50;0.50;;;;;;;10.18;80.19;101407.84;5072884;28;20047;-67
2022/05/02 03:53:21;;;;;;;2.33;0.60;;;;;;;10.20;79.76;101416.38;5089089;22;20532;-69
2022/05/02 03:55:46;;;;;;;0.60;0.50;;;;;;;10.19;79.71;101408.63;5050734;28;20412;-69
2022/05/02 03:58:13;;;;;;;0.75;0.45;;;;;;;10.21;80.08;101417.94;5048873;28;20025;-69
2022/05/02 04:00:39;;;;;;;0.38;0.38;;;;;;;10.22;80.16;101419.50;5048445;28;20244;-69
2022/05/02 04:03:05;;;;;;;0.55;0.38;;;;;;;10.22;80.02;101411.44;5049516;28;20068;-68
2022/05/02 04:05:30;;;;;;;1.45;0.57;;;;;;;10.18;80.50;101404.38;5047210;28;20098;-68
2022/05/02 04:07:55;;;;;;;0.55;0.50;;;;;;;10.18;80.65;101402.44;5048515;28;20615;-68
2022/05/02 04:10:22;;;;;;;0.38;0.38;;;;;;;10.18;80.16;101407.06;5050466;28;20064;-69
2022/05/02 04:12:47;;;;;;;0.43;0.43;;;;;;;10.23;79.68;101410.34;5050064;28;20474;-69
2022/05/02 04:15:13;;;;;;;0.75;0.47;;;;;;;10.23;79.63;101404.94;5050476;28;20029;-69
2022/05/02 04:17:40;;;;;;;1.10;0.60;;;;;;;10.26;79.08;101404.28;5049242;28;20057;-69
2022/05/02 04:20:07;;;;;;;0.28;0.20;;;;;;;10.29;79.63;101398.22;5044183;28;20163;-69
2022/05/02 04:22:33;;;;;;;0.30;0.30;;;;;;;10.31;79.54;101412.16;5030418;28;20037;-68
2022/05/02 04:24:59;;;;;;;0.40;0.40;;;;;;;10.35;80.02;101417.66;5042862;28;20037;-68
2022/05/02 04:27:24;;;;;;;0.73;0.50;;;;;;;10.36;80.32;101411.13;5028710;28;20052;-68
2022/05/02 04:29:50;;;;;;;0.65;0.55;;;;;;;10.39;80.30;101423.94;5047859;28;20036;-68
2022/05/02 04:32:18;;;;;;;0.70;0.40;;;;;;;10.43;80.05;101411.38;5045924;28;20541;-66
2022/05/02 04:34:44;;;;;;;0.82;0.43;;;;;;;10.44;79.90;101411.03;5036252;28;20029;-69
2022/05/02 04:37:09;;;;;;;0.60;0.47;;;;;;;10.50;80.36;101412.41;5039675;28;20052;-68
2022/05/02 04:39:34;;;;;;;0.57;0.45;;;;;;;10.57;80.14;101422.59;5043224;28;20029;-69
2022/05/02 04:42:00;;;;;;;1.45;0.77;;;;;;;10.58;80.31;101416.09;5044579;28;20037;-68
2022/05/02 04:44:25;;;;;;;0.40;0.40;;;;;;;10.59;79.79;101426.53;5044271;28;20033;-68
2022/05/02 04:46:51;;;;;;;0.57;0.50;;;;;;;10.62;79.53;101417.00;5046586;28;20029;-67
2022/05/02 04:49:16;;;;;;;1.17;0.73;;;;;;;10.66;79.37;101420.59;5025697;28;20052;-65
2022/05/02 04:51:42;;;;;;;0.68;0.68;;;;;;;10.68;79.24;101421.06;5035950;28;20037;-67
2022/05/02 04:54:07;;;;;;;0.20;0.20;;;;;;;10.72;78.87;101413.88;5026182;28;20660;-67
2022/05/02 04:56:33;;;;;;;0.55;0.55;;;;;;;10.77;78.53;101413.63;5046224;28;20032;-68
2022/05/02 04:58:58;;;;;;;0.77;0.50;;;;;;;10.77;78.40;101421.72;5047134;28;20028;-69
2022/05/02 05:01:24;;;;;;;0.38;0.38;;;;;;;10.79;78.40;101417.56;5040281;28;20139;-68
2022/05/02 05:03:50;;;;;;;2.17;0.52;;;;;;;10.81;78.75;101419.94;5044365;28;20041;-67
2022/05/02 05:06:15;;;;;;;0.32;0.32;;;;;;;10.84;77.98;101413.84;5044610;28;20152;-68
2022/05/02 05:08:41;;;;;;;0.57;0.50;;;;;;;10.89;77.18;101424.41;5031655;28;20044;-68
2022/05/02 05:11:31;;;;;;;0.40;0.40;;;;;;;10.83;76.33;101415.00;5047164;28;20040;-68
2022/05/02 05:17:45;;;;;;;0.80;0.50;;;;;;;10.95;76.62;101423.06;5036997;28;20049;-68
2022/05/02 05:20:29;;;;;;;1.25;0.75;;;;;;;11.06;77.38;101421.50;5026370;28;20094;-68
2022/05/02 05:23:02;;;;;;;0.60;0.60;;;;;;;11.15;76.87;101408.66;5035904;28;20036;-68
2022/05/02 05:25:51;;;;;;;0.70;0.70;;;;;;;11.24;77.33;101409.34;5043423;28;20033;-68
2022/05/02 05:28:28;;;;;;;0.63;0.30;;;;;;;11.36;76.35;101406.59;5044499;28;20039;-69
2022/05/02 05:31:17;;;;;;;1.10;0.70;;;;;;;11.40;76.61;101406.72;5026880;28;20029;-69
2022/05/02 05:33:55;;;;;;;0.50;0.30;;;;;;;11.42;76.37;101412.56;5041840;28;20037;-68
2022/05/02 05:36:29;;;;;;;1.27;0.47;;;;;;;11.46;76.01;101418.81;5041995;28;20488;-68
2022/05/02 05:39:04;;;;;;;1.02;0.55;;;;;;;11.47;75.50;101412.31;5039441;28;20791;-67
2022/05/02 05:41:36;;;;;;;0.55;0.30;;;;;;;11.50;75.16;101417.00;5025036;28;20033;-67
2022/05/02 05:44:18;;;;;;;0.68;0.68;;;;;;;11.47;75.13;101420.41;5045537;28;20515;-68
2022/05/02 05:46:46;;;;;;;1.33;0.60;;;;;;;11.57;74.94;101409.13;5044061;28;20047;-67
2022/05/02 05:49:37;;;;;;;1.58;0.82;;;;;;;11.66;75.89;101404.41;5045101;28;20499;-68
2022/05/02 05:52:42;;;;;;;0.90;0.63;;;;;;;11.74;75.84;101411.56;5048066;28;20033;-68
2022/05/02 05:55:16;;;;;;;1.10;0.60;;;;;;;11.82;75.18;101407.94;5022302;28;20551;-67
2022/05/02 05:57:41;;;;;;;1.98;0.95;;;;;;;11.87;74.42;101405.00;5025173;28;20648;-67
2022/05/02 06:00:09;;;;;;;0.80;0.50;;;;;;;11.96;73.62;101412.94;5044413;28;20087;-67
2022/05/02 06:02:49;;;;;;;0.47;0.30;;;;;;;12.11;73.06;101412.19;5043362;28;20036;-68
2022/05/02 06:05:15;;;;;;;0.50;0.50;;;;;;;12.26;72.51;101409.50;5026965;28;20061;-67
2022/05/02 06:07:43;;;;;;;0.85;0.55;;;;;;;12.45;71.51;101417.72;5046815;28;20036;-67
2022/05/02 06:10:09;;;;;;;1.25;0.77;;;;;;;12.55;70.61;101417.19;5046704;28;20044;-67
2022/05/02 06:12:36;;;;;;;0.85;0.55;;;;;;;12.57;71.68;101414.13;5042864;28;20052;-68
2022/05/02 06:20:36;;;;;;;0.43;0.40;;;;;;;12.78;66.32;101413.84;5047026;28;20028;-68
2022/05/02 06:23:02;;;;;;;0.38;0.38;;;;;;;12.78;66.04;101413.84;5047903;28;20040;-67
2022/05/02 06:25:33;;;;;;;0.50;0.50;;;;;;;13.00;63.71;101421.34;5050366;28;20029;-68
2022/05/02 06:28:02;;;;;;;0.35;0.30;;;;;;;12.89;65.97;101425.72;5047311;28;20110;-67
2022/05/02 06:30:29;;;;;;;0.40;0.40;;;;;;;13.10;66.52;101427.03;5050842;28;20166;-67
2022/05/02 06:32:58;;;;;;;0.40;0.40;;;;;;;12.97;67.59;101422.06;5024702;28;20853;-67
2022/05/02 06:35:35;;;;;;;0.55;0.47;;;;;;;13.04;66.26;101425.72;5029447;28;20032;-68
2022/05/02 06:38:09;;;;;;;0.30;0.30;;;;;;;13.25;62.48;101428.13;5043991;28;20032;-67
2022/05/02 06:40:49;;;;;;;0.90;0.40;;;;;;;13.31;60.76;101432.13;5045086;28;20501;-68
2022/05/02 06:43:36;;;;;;;0.57;0.22;;;;;;;13.37;62.18;101425.28;5051086;28;20401;-68
2022/05/02 06:46:40;;;;;;;1.02;0.93;;;;;;;13.41;62.34;101423.44;5032845;28;20504;-67
2022/05/02 06:49:12;;;;;;;0.40;0.40;;;;;;;13.44;62.25;101423.53;5026706;28;20051;-67
2022/05/02 06:51:46;;;;;;;0.25;0.25;;;;;;;13.51;61.81;101425.59;5051445;28;20464;-68
2022/05/02 06:54:16;;;;;;;0.57;0.47;;;;;;;13.79;62.44;101428.88;5044329;28;20041;-67
2022/05/02 06:57:04;;;;;;;0.65;0.43;;;;;;;13.91;61.66;101425.22;5045609;28;20476;-68
2022/05/02 06:59:52;;;;;;;0.52;0.50;;;;;;;14.01;58.64;101433.56;5044364;28;20477;-67
2022/05/02 07:02:49;;;;;;;6.80;0.47;;;;;;;14.13;56.55;101424.50;5049646;28;20044;-68
2022/05/02 07:05:27;;;;;;;1.05;0.40;;;;;;;14.25;56.19;101427.03;5048030;28;20472;-68
2022/05/02 07:08:01;;;;;;;0.60;0.60;;;;;;;14.48;53.87;101419.72;5049463;28;20104;-67
2022/05/02 07:10:33;;;;;;;0.32;0.22;;;;;;;14.64;51.50;101419.59;5051449;28;20041;-67
2022/05/02 07:13:15;;;;;;;0.20;0.20;;;;;;;14.68;52.06;101429.34;5050417;28;20103;-67
2022/05/02 07:15:45;;;;;;;0.17;0.17;;;;;;;14.66;51.73;101428.94;5046032;28;20420;-66
2022/05/02 07:18:22;;;;;;;0.30;0.20;;;;;;;14.82;50.30;101426.09;5024662;28;20397;-67
2022/05/02 07:21:06;;;;;;;0.20;0.20;;;;;;;15.20;50.14;101428.59;5049690;28;20021;-67
2022/05/02 07:24:03;;;;;;;0.50;0.30;;;;;;;15.52;48.22;101424.41;5029865;28;20041;-67
2022/05/02 07:26:30;;;;;;;0.30;0.20;;;;;;;15.92;48.64;101423.72;5042443;28;20033;-67
2022/05/02 07:29:01;;;;;;;0.95;0.50;;;;;;;16.06;48.40;101421.94;5044689;28;20056;-67
2022/05/02 07:31:28;;;;;;;0.77;0.30;;;;;;;16.16;48.36;101413.09;5049273;28;20066;-67
2022/05/02 07:33:55;;;;;;;0.95;0.30;;;;;;;16.35;50.21;101423.00;5040895;28;20041;-67
2022/05/02 07:36:22;;;;;;;0.30;0.28;;;;;;;16.41;48.01;101412.56;5042561;28;20123;-67
2022/05/02 07:38:56;;;;;;;0.30;0.30;;;;;;;16.58;46.49;101420.88;5042598;28;20028;-67
2022/05/02 07:41:26;;;;;;;0.20;0.20;;;;;;;16.34;46.44;101415.22;5041127;28;20040;-67
2022/05/02 07:44:05;;;;;;;0.20;0.20;;;;;;;16.13;46.78;101424.72;5043433;28;20032;-67
2022/05/02 07:46:43;;;;;;;0.10;0.10;;;;;;;16.14;47.55;101418.13;5039721;28;20040;-67
2022/05/02 07:49:10;;;;;;;0.43;0.40;;;;;;;16.22;46.76;101418.97;5044947;28;20047;-68
2022/05/02 07:51:47;;;;;;;0.30;0.20;;;;;;;16.63;47.82;101417.81;5047592;28;20397;-67
2022/05/02 07:54:20;;;;;;;1.42;0.30;;;;;;;17.10;47.58;101419.72;5043711;28;20081;-68
2022/05/02 07:56:51;;;;;;;0.30;0.30;;;;;;;17.23;47.80;101422.91;5042855;28;20029;-68
2022/05/02 07:59:22;;;;;;;0.30;0.30;;;;;;;17.14;47.55;101421.31;5042637;28;20084;-68
2022/05/02 08:01:47;;;;;;;0.43;0.40;;;;;;;17.21;47.36;101422.50;5035614;28;20041;-68
2022/05/02 08:04:14;;;;;;;0.60;0.30;;;;;;;17.51;46.92;101423.06;5043353;28;20394;-68
2022/05/02 08:06:45;;;;;;;0.22;0.20;;;;;;;17.81;45.37;101418.91;5012404;28;20380;-68
2022/05/02 08:09:17;;;;;;;;;;;;;;;17.83;46.29;101424.75;5045639;28;20029;-68
2022/05/02 08:12:06;;;;;;;0.15;0.15;;;;;;;17.67;45.37;101423.53;5045584;28;19938;-68
2022/05/02 08:14:51;;;;;;;0.32;0.20;;;;;;;17.86;46.68;101431.38;5045292;28;20039;-68
2022/05/02 08:17:27;;;;;;;0.17;0.13;;;;;;;18.24;45.46;101424.44;5039995;28;20110;-68
2022/05/02 08:20:11;;;;;;;0.30;0.30;;;;;;;18.32;43.91;101415.09;5043386;28;20040;-67
2022/05/02 08:28:41;;;;;;;0.98;0.50;;;;;;;18.25;45.39;101406.94;5040791;28;20033;-68
2022/05/02 08:31:20;;;;;;;0.47;0.30;;;;;;;18.40;44.49;101406.56;5046138;28;20064;-68
2022/05/02 08:34:00;;;;;;;0.22;0.20;;;;;;;18.77;44.57;101411.66;5046123;28;20033;-67
2022/05/02 08:37:05;;;;;;;0.70;0.47;;;;;;;18.55;43.58;101412.81;5043912;28;20041;-67
2022/05/02 08:40:07;;;;;;;0.40;0.20;;;;;;;18.44;42.02;101407.38;5021775;28;20099;-68
2022/05/02 08:43:04;;;;;;;0.85;0.43;;;;;;;18.71;43.72;101407.75;5044974;28;20029;-68
2022/05/02 08:45:54;;;;;;;1.10;0.63;;;;;;;18.35;43.41;101406.16;5040785;28;20068;-68
2022/05/02 08:48:49;;;;;;;0.38;0.22;;;;;;;18.42;42.58;101406.16;5044734;28;20406;-67
2022/05/02 08:51:57;;;;;;;1.33;0.57;;;;;;;18.60;44.02;101407.75;5020099;28;20064;-67
2022/05/02 08:55:04;;;;;;;0.17;0.17;;;;;;;18.30;43.57;101404.59;5019824;28;20059;-68
2022/05/02 08:57:51;;;;;;;0.65;0.38;;;;;;;18.44;43.23;101404.63;5042976;28;20166;-68
2022/05/02 09:00:48;;;;;;;0.43;0.30;;;;;;;18.60;44.04;101396.06;5046976;28;20448;-68
2022/05/02 09:03:35;;;;;;;1.08;0.30;;;;;;;19.02;43.81;101401.47;5044595;28;20056;-68
2022/05/02 09:06:12;;;;;;;0.30;0.30;;;;;;;19.04;44.27;101399.13;5047462;28;20053;-68
2022/05/02 09:09:02;;;;;;;0.47;0.20;;;;;;;19.06;43.77;101401.44;5046603;28;20032;-68
2022/05/02 09:11:32;;;;;;;0.73;0.50;;;;;;;19.02;44.11;101393.28;5045939;28;20533;-67
2022/05/02 09:14:09;;;;;;;0.98;0.50;;;;;;;18.89;43.57;101381.22;5047281;28;20174;-67
2022/05/02 09:16:44;;;;;;;0.52;0.52;;;;;;;19.37;42.41;101392.41;5044660;28;20489;-68
2022/05/02 09:19:27;;;;;;;1.85;0.65;;;;;;;19.57;42.32;101390.75;5040766;28;20137;-67
2022/05/02 09:22:17;;;;;;;0.85;0.50;;;;;;;19.65;42.82;101390.34;5047695;28;20033;-69
2022/05/02 09:25:11;;;;;;;2.65;1.00;;;;;;;19.42;42.12;101390.06;5047505;28;20053;-69
2022/05/02 09:27:49;;;;;;;0.93;0.70;;;;;;;19.40;42.85;101377.94;5043992;28;20061;-69
2022/05/02 09:30:52;;;;;;;1.58;0.88;;;;;;;19.33;43.28;101380.72;5047251;28;20029;-67
2022/05/02 09:33:31;;;;;;;1.33;0.68;;;;;;;20.11;43.43;101368.19;5041957;28;20036;-69
2022/05/02 09:36:11;;;;;;;4.20;0.90;;;;;;;20.35;43.07;101369.19;5040392;28;20029;-70
2022/05/02 09:38:48;;;;;;;1.33;0.70;;;;;;;20.77;42.37;101368.06;5040240;28;20112;-67
2022/05/02 09:41:36;;;;;;;1.73;0.70;;;;;;;20.92;41.13;101372.19;5048412;28;20045;-68
2022/05/02 09:50:28;;;;;;;2.47;1.23;;;;;;;20.91;38.58;101363.19;5044549;28;20061;-69
2022/05/02 09:53:11;;;;;;;2.03;1.20;;;;;;;20.95;37.54;101361.19;5051288;28;20051;-66
2022/05/02 09:59:00;;;;;;;1.45;1.20;;;;;;;20.86;38.42;101358.19;5046825;28;20072;-69
2022/05/02 10:01:26;;;;;;;;;;;;;;;20.61;38.90;101354.91;5048935;28;20040;-66
2022/05/02 10:03:58;;;;;;;2.92;1.00;;;;;;;20.88;39.00;101350.34;5049940;28;19924;-70
2022/05/02 10:06:36;;;;;;;2.03;0.63;;;;;;;21.24;38.31;101346.03;5042915;28;20039;-70
2022/05/02 10:09:17;;;;;;;1.55;0.70;;;;;;;21.50;37.17;101347.28;5048510;28;20033;-67
2022/05/02 10:11:51;;;;;;;1.77;1.05;;;;;;;21.53;38.55;101349.97;5050871;28;20086;-70
2022/05/02 10:14:44;;;;;;;3.60;1.30;;;;;;;21.69;39.10;101349.34;5051170;28;20504;-69
2022/05/02 10:17:13;;;;;;;4.50;1.70;;;;;;;21.87;36.14;101346.38;5043531;28;20033;-67
2022/05/02 10:20:04;;;;;;;2.08;1.20;;;;;;;21.88;37.02;101340.47;5050593;28;20106;-67
2022/05/02 10:22:51;;;;;;;3.00;1.00;;;;;;;21.99;36.83;101334.84;5050246;28;20032;-67
2022/05/02 10:25:34;;;;;;;2.47;1.13;;;;;;;21.97;35.75;101329.00;5050277;28;20159;-68
2022/05/02 10:28:23;;;;;;;1.95;1.02;;;;;;;22.06;36.30;101335.50;5046931;28;20036;-68
2022/05/02 10:30:48;;;;;;;2.97;1.30;;;;;;;21.87;36.51;101327.97;5048005;28;20068;-67
2022/05/02 10:33:15;;;;;;;1.65;1.15;;;;;;;22.16;37.00;101323.56;5031700;28;20520;-67
2022/05/02 10:35:46;;;;;;;2.80;0.90;;;;;;;22.06;36.20;101323.75;5046634;28;20119;-70
2022/05/02 10:38:19;;;;;;;1.70;1.02;;;;;;;21.79;36.19;101333.94;5043071;28;20056;-68
2022/05/02 10:40:45;;;;;;;2.38;1.20;;;;;;;21.96;36.89;101319.97;5048641;28;20493;-69
2022/05/02 10:43:23;;;;;;;1.52;0.73;;;;;;;21.89;37.22;101314.59;5032752;28;20029;-70
2022/05/02 10:45:48;;;;;;;2.15;1.10;;;;;;;21.83;36.78;101307.25;5051426;28;20524;-68
2022/05/02 10:48:31;;;;;;;3.78;1.75;;;;;;;22.01;35.54;101310.50;5032488;28;20037;-67
2022/05/02 10:51:12;;;;;;;2.47;1.08;;;;;;;22.07;36.73;101311.56;5051588;28;20048;-68
2022/05/02 10:53:55;;;;;;;1.98;0.88;;;;;;;22.50;37.05;101298.66;5051554;28;20517;-69
2022/05/02 10:57:02;;;;;;;2.63;1.38;;;;;;;22.75;36.13;101307.25;5043217;28;20128;-74
2022/05/02 10:59:34;;;;;;;2.33;0.90;;;;;;;22.92;36.05;101314.38;5009317;28;20418;-70
2022/05/02 11:02:18;;;;;;;1.88;1.25;;;;;;;23.14;35.48;101299.00;5050883;28;20438;-70
2022/05/02 11:05:09;;;;;;;1.90;0.95;;;;;;;23.20;36.30;101305.56;5050096;28;20481;-71
2022/05/02 11:08:12;;;;;;;3.35;1.30;;;;;;;23.14;36.63;101292.72;5040369;28;20060;-69
2022/05/02 11:10:58;;;;;;;2.50;1.02;;;;;;;22.93;35.93;101299.44;5037638;28;20522;-68
2022/05/02 11:13:29;;;;;;;2.03;1.13;;;;;;;23.06;36.12;101297.59;5043674;28;20033;-69
2022/05/02 11:16:17;;;;;;;1.95;1.00;;;;;;;22.94;35.63;101298.25;5045069;28;20488;-68
2022/05/02 11:22:19;;;;;;;2.53;1.20;;;;;;;22.27;36.06;101293.97;5044240;28;20037;-69
2022/05/02 11:25:00;;;;;;;1.38;0.70;;;;;;;22.43;36.33;101287.81;5026021;28;20657;-69
2022/05/02 11:27:34;;;;;;;2.03;1.10;;;;;;;22.50;36.40;101293.19;5045814;28;20489;-69
2022/05/02 11:30:08;;;;;;;2.08;1.33;;;;;;;22.55;35.22;101278.19;5036374;28;20036;-70
2022/05/02 11:33:09;;;;;;;3.78;1.20;;;;;;;22.87;35.57;101284.66;5037692;28;20135;-66
2022/05/02 11:35:36;;;;;;;3.15;1.20;;;;;;;22.59;34.62;101276.19;5018814;28;20506;-69
2022/05/02 11:38:16;;;;;;;2.33;1.23;;;;;;;22.69;35.49;101272.44;5040566;28;20040;-68
2022/05/02 11:40:45;;;;;;;2.40;1.10;;;;;;;22.75;35.75;101265.25;5023794;28;20106;-67
2022/05/02 11:43:15;;;;;;;2.03;1.10;;;;;;;23.00;36.29;101269.06;5023356;28;20028;-69
2022/05/02 11:45:43;;;;;;;2.60;1.15;;;;;;;23.18;36.77;101269.47;5043006;28;20033;-67
2022/05/02 11:48:28;;;;;;;2.15;0.90;;;;;;;23.26;35.80;101272.84;5025602;28;20408;-69
2022/05/02 11:50:56;;;;;;;2.55;1.33;;;;;;;22.85;35.57;101261.53;5019228;28;20041;-70
2022/05/02 11:53:28;;;;;;;2.55;1.40;;;;;;;22.95;36.34;101272.31;5045445;28;20115;-69
2022/05/02 11:55:55;;;;;;;3.30;1.20;;;;;;;23.12;36.12;101265.69;5043838;28;20496;-68
2022/05/02 11:58:42;;;;;;;1.85;1.08;;;;;;;23.01;35.68;101262.38;5037850;28;20056;-69
2022/05/02 12:01:10;;;;;;;2.25;1.33;;;;;;;22.80;35.92;101254.56;5043602;28;20037;-69
2022/05/02 12:04:00;;;;;;;2.38;1.25;;;;;;;22.73;36.24;101262.94;5043153;28;20040;-69
2022/05/02 12:06:51;;;;;;;2.42;1.10;;;;;;;22.67;37.04;101256.38;5023260;28;20033;-66
2022/05/02 12:09:23;;;;;;;2.38;1.15;;;;;;;22.71;36.59;101262.59;5023780;28;20135;-68
2022/05/02 12:11:54;;;;;;;3.75;1.70;;;;;;;22.73;36.39;101251.16;5037690;28;20123;-69
2022/05/02 12:14:21;;;;;;;1.00;0.70;;;;;;;22.88;37.11;101246.97;5041345;28;20069;-69
2022/05/02 12:17:10;;;;;;;3.92;1.40;;;;;;;22.73;35.72;101240.97;5039766;28;20451;-67
2022/05/02 12:19:38;;;;;;;3.80;1.10;;;;;;;22.77;34.56;101238.94;5021456;28;20493;-69
2022/05/02 12:22:08;;;;;;;2.30;1.00;;;;;;;22.72;36.78;101233.16;5044081;28;20064;-65
2022/05/02 12:24:38;;;;;;;2.25;1.10;;;;;;;22.65;35.03;101239.56;5043838;28;20029;-69
2022/05/02 12:27:08;;;;;;;3.42;1.45;;;;;;;22.92;37.23;101228.41;5041974;28;20065;-66